createdAt,value
2018-09-28T00:01:23.976Z,101069.64
2018-09-28T00:03:52.026Z,101060.84
2018-09-28T00:06:20.098Z,101059.34
2018-09-28T00:08:48.161Z,101067.36
2018-09-28T00:11:16.198Z,101063.67
2018-09-28T00:13:44.312Z,101070.20
2018-09-28T00:16:12.383Z,101065.16
2018-09-28T00:18:40.436Z,101072.32
2018-09-28T00:21:08.474Z,101077.56
2018-09-28T00:23:37.492Z,101077.89
2018-09-28T00:26:05.900Z,101082.20
2018-09-28T00:28:33.810Z,101075.89
2018-09-28T00:31:01.897Z,101077.64
2018-09-28T00:33:29.934Z,101078.38
2018-09-28T00:35:58.082Z,101077.50
2018-09-28T00:38:26.070Z,101074.27
2018-09-28T00:40:54.096Z,101075.23
2018-09-28T00:43:22.242Z,101075.72
2018-09-28T00:45:50.362Z,101066.03
2018-09-28T00:48:18.394Z,101075.11
2018-09-28T00:50:46.448Z,101083.35
2018-09-28T00:53:14.481Z,101081.56
2018-09-28T00:55:42.521Z,101084.22
2018-09-28T00:58:10.561Z,101086.12
2018-09-28T01:00:38.593Z,101083.46
2018-09-28T01:03:06.871Z,101083.22
2018-09-28T01:05:34.921Z,101076.31
2018-09-28T01:08:02.990Z,101081.53
2018-09-28T01:10:31.031Z,101079.81
2018-09-28T01:12:59.206Z,101075.44
2018-09-28T01:15:27.243Z,101076.73
2018-09-28T01:17:55.320Z,101072.72
2018-09-28T01:20:23.406Z,101071.89
2018-09-28T01:22:51.462Z,101071.35
2018-09-28T01:25:19.496Z,101070.26
2018-09-28T01:27:47.548Z,101069.60
2018-09-28T01:30:15.638Z,101073.55
2018-09-28T01:32:43.749Z,101069.71
2018-09-28T01:35:11.857Z,101078.87
2018-09-28T01:37:39.894Z,101079.73
2018-09-28T01:40:07.974Z,101072.52
2018-09-28T01:42:36.077Z,101068.81
2018-09-28T01:45:04.283Z,101067.19
2018-09-28T01:47:32.361Z,101070.48
2018-09-28T01:50:00.429Z,101072.26
2018-09-28T01:52:28.553Z,101071.27
2018-09-28T01:54:56.622Z,101070.24
2018-09-28T01:57:24.650Z,101063.49
2018-09-28T01:59:52.793Z,101068.13
2018-09-28T02:02:20.842Z,101068.50
2018-09-28T02:04:48.954Z,101067.67
2018-09-28T02:07:17.034Z,101077.31
2018-09-28T02:09:45.158Z,101083.95
2018-09-28T02:12:13.215Z,101090.17
2018-09-28T02:14:41.274Z,101090.33
2018-09-28T02:17:09.505Z,101092.52
2018-09-28T02:19:37.558Z,101094.05
2018-09-28T02:22:05.602Z,101097.86
2018-09-28T02:24:33.737Z,101101.03
2018-09-28T02:27:01.817Z,101092.72
2018-09-28T02:29:29.899Z,101095.64
2018-09-28T02:31:57.997Z,101093.81
2018-09-28T02:34:26.044Z,101097.71
2018-09-28T02:36:54.234Z,101097.95
2018-09-28T02:39:22.299Z,101091.16
2018-09-28T02:41:50.354Z,101095.13
2018-09-28T02:44:18.406Z,101088.81
2018-09-28T02:46:46.470Z,101104.45
2018-09-28T02:49:14.554Z,101103.98
2018-09-28T02:51:42.622Z,101099.69
2018-09-28T02:54:10.693Z,101099.89
2018-09-28T02:56:38.753Z,101100.63
2018-09-28T02:59:06.804Z,101104.14
2018-09-28T03:01:34.902Z,101092.20
2018-09-28T03:04:02.942Z,101095.45
2018-09-28T03:06:30.998Z,101099.86
2018-09-28T03:08:59.086Z,101105.58
2018-09-28T03:11:27.160Z,101100.05
2018-09-28T03:13:55.277Z,101102.22
2018-09-28T03:16:23.339Z,101107.44
2018-09-28T03:18:51.409Z,101104.94
2018-09-28T03:21:19.570Z,101107.47
2018-09-28T03:23:47.649Z,101109.72
2018-09-28T03:26:15.930Z,101114.77
2018-09-28T03:28:43.958Z,101119.11
2018-09-28T03:31:12.034Z,101119.84
2018-09-28T03:33:40.062Z,101124.06
2018-09-28T03:36:08.163Z,101130.33
2018-09-28T03:38:36.756Z,101140.55
2018-09-28T03:41:04.805Z,101149.80
2018-09-28T03:43:33.017Z,101151.77
2018-09-28T03:46:01.101Z,101160.62
2018-09-28T03:48:29.172Z,101162.30
2018-09-28T03:50:57.193Z,101170.38
2018-09-28T03:53:25.523Z,101163.98
2018-09-28T03:55:53.618Z,101159.84
2018-09-28T03:58:21.629Z,101165.48
2018-09-28T04:00:50.141Z,101167.23
2018-09-28T04:03:18.210Z,101166.77
2018-09-28T04:05:46.328Z,101167.58
2018-09-28T04:08:14.454Z,101173.25
2018-09-28T04:10:42.621Z,101174.84
2018-09-28T04:13:10.665Z,101175.36
2018-09-28T04:15:38.727Z,101183.14
2018-09-28T04:18:06.774Z,101183.63
2018-09-28T04:20:34.842Z,101184.41
2018-09-28T04:23:02.954Z,101187.83
2018-09-28T04:25:31.112Z,101190.23
2018-09-28T04:27:59.142Z,101197.98
2018-09-28T04:30:27.229Z,101196.13
2018-09-28T04:32:55.277Z,101210.64
2018-09-28T04:35:23.400Z,101207.31
2018-09-28T04:37:51.491Z,101209.75
2018-09-28T04:40:19.545Z,101215.52
2018-09-28T04:42:47.651Z,101226.86
2018-09-28T04:45:15.739Z,101234.25
2018-09-28T04:47:43.742Z,101238.59
2018-09-28T04:50:11.798Z,101245.53
2018-09-28T04:52:39.842Z,101242.88
2018-09-28T04:55:07.987Z,101250.93
2018-09-28T04:57:36.074Z,101251.42
2018-09-28T05:00:05.132Z,101253.59
2018-09-28T05:02:33.256Z,101258.80
2018-09-28T05:05:01.276Z,101257.56
2018-09-28T05:07:29.375Z,101257.13
2018-09-28T05:09:57.446Z,101266.69
2018-09-28T05:12:25.558Z,101277.66
2018-09-28T05:14:53.681Z,101278.98
2018-09-28T05:17:21.726Z,101287.52
2018-09-28T05:19:49.781Z,101287.14
2018-09-28T05:22:17.834Z,101292.17
2018-09-28T05:24:45.852Z,101292.56
2018-09-28T05:27:13.946Z,101297.77
2018-09-28T05:29:42.067Z,101303.27
2018-09-28T05:32:10.317Z,101310.66
2018-09-28T05:34:38.344Z,101308.77
2018-09-28T05:37:06.589Z,101306.45
2018-09-28T05:39:34.784Z,101312.92
2018-09-28T05:42:02.910Z,101315.77
2018-09-28T05:44:30.971Z,101325.63
2018-09-28T05:46:59.020Z,101322.77
2018-09-28T05:49:27.055Z,101335.58
2018-09-28T05:51:55.152Z,101335.66
2018-09-28T05:54:23.249Z,101349.02
2018-09-28T05:56:51.509Z,101355.28
2018-09-28T05:59:25.106Z,101361.23
2018-09-28T06:01:58.877Z,101365.23
2018-09-28T06:04:32.406Z,101364.08
2018-09-28T06:07:00.494Z,101372.25
2018-09-28T06:09:28.691Z,101377.37
2018-09-28T06:11:57.057Z,101372.42
2018-09-28T06:14:25.203Z,101386.66
2018-09-28T06:16:53.265Z,101385.90
2018-09-28T06:19:21.346Z,101391.77
2018-09-28T06:21:49.462Z,101393.66
2018-09-28T06:24:17.614Z,101401.55
2018-09-28T06:26:45.602Z,101396.79
2018-09-28T06:29:13.614Z,101400.14
2018-09-28T06:31:41.683Z,101406.28
2018-09-28T06:34:09.888Z,101412.20
2018-09-28T06:36:38.080Z,101410.99
2018-09-28T06:39:06.458Z,101416.20
2018-09-28T06:41:34.566Z,101418.69
2018-09-28T06:44:02.826Z,101425.99
2018-09-28T06:46:30.902Z,101426.61
2018-09-28T06:48:58.931Z,101431.04
2018-09-28T06:51:27.024Z,101437.57
2018-09-28T06:53:55.007Z,101441.67
2018-09-28T06:56:23.055Z,101437.57
2018-09-28T06:58:51.089Z,101436.16
2018-09-28T07:01:19.190Z,101440.63
2018-09-28T07:03:47.250Z,101437.88
2018-09-28T07:06:15.372Z,101445.05
2018-09-28T07:08:43.414Z,101446.92
2018-09-28T07:11:11.465Z,101452.57
2018-09-28T07:13:39.514Z,101454.76
2018-09-28T07:16:07.623Z,101466.86
2018-09-28T07:18:35.613Z,101468.31
2018-09-28T07:21:03.695Z,101470.37
2018-09-28T07:23:31.763Z,101475.51
2018-09-28T07:25:59.817Z,101475.28
2018-09-28T07:28:27.869Z,101476.66
2018-09-28T07:30:55.927Z,101478.77
2018-09-28T07:33:24.054Z,101485.35
2018-09-28T07:35:52.254Z,101490.59
2018-09-28T07:38:20.287Z,101503.17
2018-09-28T07:40:48.378Z,101507.38
2018-09-28T07:43:16.680Z,101506.88
2018-09-28T07:45:44.742Z,101514.19
2018-09-28T07:48:12.864Z,101508.56
2018-09-28T07:50:40.833Z,101516.48
2018-09-28T07:53:08.894Z,101516.43
2018-09-28T07:55:36.921Z,101525.84
2018-09-28T07:58:04.971Z,101529.63
2018-09-28T08:00:33.052Z,101531.73
2018-09-28T08:03:01.098Z,101533.50
2018-09-28T08:05:29.169Z,101540.69
2018-09-28T08:07:57.218Z,101547.34
2018-09-28T08:10:25.276Z,101549.44
2018-09-28T08:12:53.353Z,101556.58
2018-09-28T08:15:21.385Z,101557.53
2018-09-28T08:17:49.466Z,101547.70
2018-09-28T08:20:17.482Z,101552.08
2018-09-28T08:22:45.569Z,101560.48
2018-09-28T08:25:13.630Z,101561.42
2018-09-28T08:27:41.698Z,101560.34
2018-09-28T08:30:09.824Z,101559.20
2018-09-28T08:32:37.900Z,101550.86
2018-09-28T08:35:05.983Z,101565.89
2018-09-28T08:37:35.054Z,101558.44
2018-09-28T08:40:03.749Z,101566.78
2018-09-28T08:42:31.817Z,101564.35
2018-09-28T08:45:00.052Z,101575.16
2018-09-28T08:47:28.168Z,101571.84
2018-09-28T08:49:56.266Z,101582.75
2018-09-28T08:52:24.288Z,101571.95
2018-09-28T08:54:52.360Z,101580.59
2018-09-28T08:57:20.378Z,101573.02
2018-09-28T08:59:48.440Z,101584.23
2018-09-28T09:02:16.466Z,101581.71
2018-09-28T09:04:44.546Z,101579.51
2018-09-28T09:07:12.562Z,101590.64
2018-09-28T09:09:40.592Z,101583.95
2018-09-28T09:12:08.638Z,101581.93
2018-09-28T09:14:36.674Z,101590.55
2018-09-28T09:17:04.778Z,101598.41
2018-09-28T09:19:32.897Z,101603.50
2018-09-28T09:22:00.943Z,101601.24
2018-09-28T09:24:29.012Z,101605.77
2018-09-28T09:26:57.102Z,101605.56
2018-09-28T09:29:25.226Z,101609.78
2018-09-28T09:31:53.255Z,101603.25
2018-09-28T09:34:21.313Z,101601.55
2018-09-28T09:36:49.345Z,101607.70
2018-09-28T09:39:17.469Z,101608.12
2018-09-28T09:41:45.543Z,101615.02
2018-09-28T09:44:13.685Z,101613.06
2018-09-28T09:46:41.726Z,101608.54
2018-09-28T09:49:09.922Z,101617.09
2018-09-28T09:51:38.055Z,101614.89
2018-09-28T09:54:06.073Z,101617.60
2018-09-28T09:56:34.126Z,101604.92
2018-09-28T09:59:02.174Z,101607.86
2018-09-28T10:01:35.722Z,101608.94
2018-09-28T10:04:07.677Z,101618.56
2018-09-28T10:06:35.731Z,101608.91
2018-09-28T10:09:05.526Z,101608.65
2018-09-28T10:11:33.759Z,101609.28
2018-09-28T10:14:01.829Z,101606.37
2018-09-28T10:16:30.034Z,101606.37
2018-09-28T10:18:58.090Z,101613.09
2018-09-28T10:21:26.356Z,101608.91
2018-09-28T10:23:54.476Z,101612.49
2018-09-28T10:26:22.586Z,101610.53
2018-09-28T10:28:50.781Z,101601.95
2018-09-28T10:31:18.876Z,101611.12
2018-09-28T10:33:47.009Z,101621.01
2018-09-28T10:36:15.101Z,101615.63
2018-09-28T10:38:43.158Z,101605.77
2018-09-28T10:41:11.273Z,101612.00
2018-09-28T10:43:39.323Z,101617.77
2018-09-28T10:46:07.622Z,101626.73
2018-09-28T10:48:35.739Z,101625.05
2018-09-28T10:51:04.002Z,101624.45
2018-09-28T10:53:32.165Z,101620.69
2018-09-28T10:56:00.245Z,101625.64
2018-09-28T10:58:28.325Z,101623.25
2018-09-28T11:00:56.374Z,101627.58
2018-09-28T11:03:24.455Z,101623.64
2018-09-28T11:05:52.483Z,101621.21
2018-09-28T11:08:20.593Z,101609.96
2018-09-28T11:10:48.665Z,101612.57
2018-09-28T11:13:16.670Z,101624.94
2018-09-28T11:15:45.672Z,101611.82
2018-09-28T11:18:13.695Z,101609.40
2018-09-28T11:20:41.765Z,101618.30
2018-09-28T11:23:09.856Z,101615.84
2018-09-28T11:25:37.894Z,101621.83
2018-09-28T11:28:06.007Z,101609.09
2018-09-28T11:30:34.195Z,101601.89
2018-09-28T11:33:02.234Z,101611.75
2018-09-28T11:35:30.303Z,101609.86
2018-09-28T11:37:58.331Z,101610.78
2018-09-28T11:40:26.350Z,101605.20
2018-09-28T11:42:54.408Z,101613.91
2018-09-28T11:45:22.481Z,101614.82
2018-09-28T11:47:50.557Z,101612.14
2018-09-28T11:50:18.601Z,101614.18
2018-09-28T11:52:46.643Z,101618.14
2018-09-28T11:55:14.670Z,101613.56
2018-09-28T11:57:42.795Z,101620.69
2018-09-28T12:00:10.893Z,101618.62
2018-09-28T12:02:38.965Z,101619.14
2018-09-28T12:05:07.156Z,101617.59
2018-09-28T12:07:35.202Z,101608.02
2018-09-28T12:10:03.211Z,101617.28
2018-09-28T12:12:31.286Z,101614.69
2018-09-28T12:14:59.399Z,101609.61
2018-09-28T12:17:27.421Z,101610.33
2018-09-28T12:19:55.447Z,101617.00
2018-09-28T12:22:23.535Z,101620.63
2018-09-28T12:24:51.657Z,101619.22
2018-09-28T12:27:19.767Z,101614.55
2018-09-28T12:29:47.750Z,101618.17
2018-09-28T12:32:15.762Z,101619.45
2018-09-28T12:34:43.873Z,101618.37
2018-09-28T12:37:12.038Z,101619.12
2018-09-28T12:39:40.096Z,101629.00
2018-09-28T12:42:08.307Z,101634.13
2018-09-28T12:44:36.420Z,101633.19
2018-09-28T12:47:04.452Z,101625.20
2018-09-28T12:49:32.480Z,101643.28
2018-09-28T12:52:00.598Z,101646.06
2018-09-28T12:54:28.772Z,101653.72
2018-09-28T12:56:56.718Z,101657.20
2018-09-28T12:59:24.777Z,101651.55
2018-09-28T13:01:52.773Z,101657.25
2018-09-28T13:04:20.788Z,101662.62
2018-09-28T13:06:50.288Z,101663.16
2018-09-28T13:09:18.242Z,101658.53
2018-09-28T13:11:46.770Z,101651.02
2018-09-28T13:14:14.843Z,101650.80
2018-09-28T13:16:42.921Z,101656.15
2018-09-28T13:19:11.001Z,101657.88
2018-09-28T13:21:39.102Z,101656.38
2018-09-28T13:24:07.212Z,101658.23
2018-09-28T13:26:35.315Z,101661.77
2018-09-28T13:29:03.356Z,101657.19
2018-09-28T13:31:31.330Z,101651.09
2018-09-28T13:33:59.367Z,101662.52
2018-09-28T13:36:27.496Z,101663.78
2018-09-28T13:38:55.543Z,101662.68
2018-09-28T13:41:23.585Z,101661.90
2018-09-28T13:43:51.643Z,101670.06
2018-09-28T13:46:19.729Z,101667.32
2018-09-28T13:48:47.927Z,101665.86
2018-09-28T13:51:15.922Z,101662.92
2018-09-28T13:53:44.145Z,101679.92
2018-09-28T13:56:12.145Z,101676.31
2018-09-28T13:58:40.256Z,101688.26
2018-09-28T14:01:08.267Z,101692.36
2018-09-28T14:03:36.294Z,101683.16
2018-09-28T14:06:04.345Z,101681.42
2018-09-28T14:08:32.374Z,101681.69
2018-09-28T14:11:00.390Z,101680.14
2018-09-28T14:13:28.495Z,101684.94
2018-09-28T14:15:56.509Z,101688.34
2018-09-28T14:18:24.615Z,101681.42
2018-09-28T14:20:52.601Z,101683.27
2018-09-28T14:23:20.615Z,101687.86
2018-09-28T14:25:48.667Z,101687.13
2018-09-28T14:28:16.708Z,101688.84
2018-09-28T14:30:44.777Z,101689.82
2018-09-28T14:33:12.883Z,101694.77
2018-09-28T14:35:40.952Z,101695.75
2018-09-28T14:38:08.971Z,101705.66
2018-09-28T14:40:37.091Z,101706.54
2018-09-28T14:43:05.129Z,101705.46
2018-09-28T14:45:33.166Z,101703.73
2018-09-28T14:48:01.154Z,101706.52
2018-09-28T14:50:29.198Z,101700.58
2018-09-28T14:52:58.305Z,101700.45
2018-09-28T14:55:26.329Z,101701.41
2018-09-28T14:57:54.432Z,101707.56
2018-09-28T15:00:23.005Z,101702.77
2018-09-28T15:02:51.096Z,101701.25
2018-09-28T15:05:19.192Z,101701.66
2018-09-28T15:07:47.368Z,101702.78
2018-09-28T15:10:15.449Z,101699.98
2018-09-28T15:12:43.606Z,101707.81
2018-09-28T15:15:11.642Z,101704.53
2018-09-28T15:17:39.665Z,101708.45
2018-09-28T15:20:07.720Z,101707.61
2018-09-28T15:22:35.807Z,101702.54
2018-09-28T15:25:03.906Z,101709.74
2018-09-28T15:27:31.942Z,101713.38
2018-09-28T15:30:00.034Z,101716.11
2018-09-28T15:32:28.244Z,101719.89
2018-09-28T15:34:56.297Z,101722.52
2018-09-28T15:37:24.399Z,101720.11
2018-09-28T15:39:52.425Z,101723.34
2018-09-28T15:42:20.523Z,101730.03
2018-09-28T15:44:48.960Z,101729.70
2018-09-28T15:47:16.993Z,101731.28
2018-09-28T15:49:45.092Z,101733.98
2018-09-28T15:52:13.219Z,101734.44
2018-09-28T15:54:41.269Z,101729.59
2018-09-28T15:57:09.322Z,101727.63
2018-09-28T15:59:37.370Z,101726.79
2018-09-28T16:02:05.559Z,101726.02
2018-09-28T16:04:33.565Z,101728.67
2018-09-28T16:07:01.599Z,101719.17
2018-09-28T16:09:29.658Z,101723.97
2018-09-28T16:11:57.838Z,101734.77
2018-09-28T16:14:25.947Z,101743.20
2018-09-28T16:16:54.354Z,101742.35
2018-09-28T16:19:22.445Z,101741.75
2018-09-28T16:21:50.590Z,101747.95
2018-09-28T16:24:18.737Z,101746.34
2018-09-28T16:26:46.799Z,101746.83
2018-09-28T16:29:14.898Z,101762.34
2018-09-28T16:31:43.052Z,101763.08
2018-09-28T16:34:11.218Z,101760.81
2018-09-28T16:36:39.265Z,101767.19
2018-09-28T16:39:08.690Z,101769.36
2018-09-28T16:41:36.751Z,101767.09
2018-09-28T16:44:04.835Z,101761.09
2018-09-28T16:46:32.890Z,101764.89
2018-09-28T16:49:01.097Z,101770.61
2018-09-28T16:51:29.269Z,101778.50
2018-09-28T16:53:57.454Z,101780.86
2018-09-28T16:56:25.638Z,101783.05
2018-09-28T16:58:53.729Z,101778.87
2018-09-28T17:01:21.905Z,101790.88
2018-09-28T17:03:49.933Z,101796.37
2018-09-28T17:06:18.033Z,101796.59
2018-09-28T17:08:46.153Z,101802.84
2018-09-28T17:11:14.186Z,101806.80
2018-09-28T17:13:42.315Z,101811.23
2018-09-28T17:16:10.453Z,101818.36
2018-09-28T17:18:38.506Z,101821.48
2018-09-28T17:21:06.751Z,101824.73
2018-09-28T17:23:34.913Z,101834.33
2018-09-28T17:26:02.979Z,101838.91
2018-09-28T17:28:31.130Z,101838.50
2018-09-28T17:30:59.201Z,101840.09
2018-09-28T17:33:27.251Z,101850.14
2018-09-28T17:35:56.818Z,101841.22
2018-09-28T17:38:25.942Z,101855.00
2018-09-28T17:40:54.083Z,101857.79
2018-09-28T17:43:22.196Z,101853.03
2018-09-28T17:45:50.671Z,101864.02
2018-09-28T17:48:18.708Z,101866.87
2018-09-28T17:50:46.777Z,101870.33
2018-09-28T17:53:15.797Z,101871.72
2018-09-28T17:55:43.850Z,101870.03
2018-09-28T17:58:11.866Z,101873.13
2018-09-28T18:00:40.006Z,101871.88
2018-09-28T18:03:08.050Z,101878.98
2018-09-28T18:05:36.205Z,101879.83
2018-09-28T18:08:04.300Z,101883.74
2018-09-28T18:10:32.365Z,101878.58
2018-09-28T18:13:00.463Z,101879.75
2018-09-28T18:15:28.514Z,101877.34
2018-09-28T18:17:56.600Z,101882.62
2018-09-28T18:20:24.703Z,101885.27
2018-09-28T18:22:52.727Z,101891.89
2018-09-28T18:25:20.765Z,101896.78
2018-09-28T18:27:48.814Z,101906.11
2018-09-28T18:30:16.884Z,101904.31
2018-09-28T18:32:45.030Z,101902.52
2018-09-28T18:35:13.114Z,101902.66
2018-09-28T18:37:41.207Z,101898.90
2018-09-28T18:40:09.222Z,101902.40
2018-09-28T18:42:37.362Z,101895.73
2018-09-28T18:45:05.645Z,101896.21
2018-09-28T18:47:33.690Z,101897.38
2018-09-28T18:50:01.771Z,101895.08
2018-09-28T18:52:29.863Z,101890.73
2018-09-28T18:54:57.945Z,101898.27
2018-09-28T18:57:25.953Z,101891.39
2018-09-28T18:59:53.984Z,101896.62
2018-09-28T19:02:22.032Z,101893.41
2018-09-28T19:04:50.108Z,101904.86
2018-09-28T19:07:18.212Z,101903.09
2018-09-28T19:09:46.290Z,101905.38
2018-09-28T19:12:15.390Z,101904.25
2018-09-28T19:14:43.402Z,101901.13
2018-09-28T19:17:11.489Z,101908.98
2018-09-28T19:19:39.515Z,101916.17
2018-09-28T19:22:07.617Z,101916.08
2018-09-28T19:24:35.870Z,101922.64
2018-09-28T19:27:04.031Z,101924.33
2018-09-28T19:29:34.144Z,101928.98
2018-09-28T19:32:02.189Z,101920.75
2018-09-28T19:34:30.249Z,101921.05
2018-09-28T19:36:58.993Z,101927.05
2018-09-28T19:39:27.077Z,101930.27
2018-09-28T19:41:55.217Z,101938.42
2018-09-28T19:44:23.261Z,101928.77
2018-09-28T19:46:51.290Z,101939.51
2018-09-28T19:49:19.396Z,101943.74
2018-09-28T19:51:47.517Z,101942.72
2018-09-28T19:54:15.583Z,101946.84
2018-09-28T19:56:43.769Z,101949.62
2018-09-28T19:59:11.825Z,101954.00
2018-09-28T20:01:39.854Z,101955.52
2018-09-28T20:04:08.044Z,101953.72
2018-09-28T20:06:36.337Z,101950.29
2018-09-28T20:09:06.371Z,101956.24
2018-09-28T20:11:34.491Z,101963.94
2018-09-28T20:14:02.583Z,101964.05
2018-09-28T20:16:30.637Z,101963.28
2018-09-28T20:18:58.751Z,101964.31
2018-09-28T20:21:26.821Z,101972.11
2018-09-28T20:23:54.896Z,101974.52
2018-09-28T20:26:23.054Z,101980.38
2018-09-28T20:28:51.058Z,101980.31
2018-09-28T20:31:19.154Z,101980.70
2018-09-28T20:33:47.201Z,101988.16
2018-09-28T20:36:15.254Z,101984.59
2018-09-28T20:38:43.282Z,101982.50
2018-09-28T20:41:11.357Z,101985.14
2018-09-28T20:43:39.438Z,101984.36
2018-09-28T20:46:07.606Z,101981.72
2018-09-28T20:48:35.796Z,101982.61
2018-09-28T20:51:03.829Z,101988.55
2018-09-28T20:53:32.069Z,101991.52
2018-09-28T20:56:00.094Z,102000.48
2018-09-28T20:58:28.117Z,101997.99
2018-09-28T21:01:00.033Z,101992.97
2018-09-28T21:03:28.034Z,101995.19
2018-09-28T21:05:56.083Z,101999.09
2018-09-28T21:08:24.106Z,102004.28
2018-09-28T21:10:52.127Z,102004.33
2018-09-28T21:13:20.197Z,102010.89
2018-09-28T21:15:48.193Z,102014.20
2018-09-28T21:18:16.238Z,102014.77
2018-09-28T21:20:44.246Z,102021.28
2018-09-28T21:23:12.339Z,102024.55
2018-09-28T21:25:40.377Z,102022.59
2018-09-28T21:28:08.414Z,102026.27
2018-09-28T21:30:36.566Z,102029.93
2018-09-28T21:33:04.609Z,102029.20
2018-09-28T21:35:32.642Z,102030.98
2018-09-28T21:38:00.675Z,102026.78
2018-09-28T21:40:28.687Z,102030.02
2018-09-28T21:42:56.759Z,102028.39
2018-09-28T21:45:24.783Z,102017.14
2018-09-28T21:47:52.870Z,102028.30
2018-09-28T21:50:20.912Z,102022.03
2018-09-28T21:52:48.941Z,102032.64
2018-09-28T21:55:16.950Z,102028.09
2018-09-28T21:57:44.963Z,102029.41
2018-09-28T22:00:12.993Z,102033.50
2018-09-28T22:02:41.017Z,102022.42
2018-09-28T22:05:09.058Z,102012.25
2018-09-28T22:07:37.094Z,102022.94
2018-09-28T22:10:05.318Z,102020.24
2018-09-28T22:12:33.350Z,102030.88
2018-09-28T22:15:01.352Z,102034.20
2018-09-28T22:17:29.633Z,102038.97
2018-09-28T22:19:57.659Z,102037.11
2018-09-28T22:22:25.761Z,102040.95
2018-09-28T22:24:53.774Z,102047.33
2018-09-28T22:27:21.775Z,102039.22
2018-09-28T22:29:49.817Z,102046.21
2018-09-28T22:32:17.841Z,102045.47
2018-09-28T22:34:45.914Z,102045.98
2018-09-28T22:37:13.973Z,102043.06
2018-09-28T22:39:42.019Z,102041.44
2018-09-28T22:42:10.054Z,102045.09
2018-09-28T22:44:38.141Z,102048.81
2018-09-28T22:47:06.201Z,102045.86
2018-09-28T22:49:34.274Z,102047.61
2018-09-28T22:52:02.287Z,102045.98
2018-09-28T22:54:30.317Z,102040.42
2018-09-28T22:56:58.327Z,102043.68
2018-09-28T22:59:26.344Z,102036.46
2018-09-28T23:01:54.390Z,102039.17
2018-09-28T23:04:22.441Z,102039.32
2018-09-28T23:06:50.510Z,102042.11
2018-09-28T23:09:18.597Z,102040.13
2018-09-28T23:11:46.645Z,102039.84
2018-09-28T23:14:14.678Z,102043.08
2018-09-28T23:16:42.694Z,102042.88
2018-09-28T23:19:10.712Z,102047.18
2018-09-28T23:21:38.758Z,102045.94
2018-09-28T23:24:07.077Z,102050.56
2018-09-28T23:26:35.105Z,102048.98
2018-09-28T23:29:03.247Z,102052.75
2018-09-28T23:31:31.334Z,102055.48
2018-09-28T23:33:59.346Z,102067.08
2018-09-28T23:36:27.356Z,102065.41
2018-09-28T23:38:55.409Z,102072.45
2018-09-28T23:41:23.458Z,102075.34
2018-09-28T23:43:51.470Z,102070.70
2018-09-28T23:46:19.482Z,102068.14
2018-09-28T23:48:47.502Z,102074.84
2018-09-28T23:51:15.508Z,102076.80
2018-09-28T23:53:43.542Z,102085.61
2018-09-28T23:56:11.534Z,102092.20
2018-09-28T23:58:39.553Z,102087.33
